PWSweather.com
Personal Weather Stations
Station Observations
KNYSALTS1
Hessville, Fort Plain, NY

HessvilleFort Plain, NY

Lat: 42.86430704, Lon: -74.72141266

Elevation: 1041

Station Type: Davis Vantage Pro2 Plus

http://indiantrailweather.com

Latest ConditionsUpdated 12:50:10 PM EDT Sunday, Sep 23, 2018
Currently Today's Max Today's Min Today's Average
Temperature 60.8°F16.0°C 60.8°F16.0°C 42.5°F5.8°C 49.0°F9.4°C
Dew Point 52.1°F11.2°C 52.1°F11.2°C 41.7°F5.4°C 46.1°F7.8°C
Winds 2.3 mph NW3.7 kmh NW 9.2 mph -14.8 kmh - - 4.1 mph 6.6 kmh
Wind Gusts 3.5 mph5.6 kmh 10.4 mph16.7 kmh - -
Humidity 73% 98% 71% 90%
Pressure 30.25 in1024.4 mb 30.28 in1025.4 mb 30.22 in1023.4 mb -
Hour Temp Dew Point Humidity Winds Wind Gusts Pressure Precip Precip Rate Daily Precip Total
12:50 PM 60.8°F16.0°C 52.1°F11.2°C 73% 2.3 mph NW3.7 kmh NW 3.5 mph5.6 kmh 30.25 in1024.4 mb - 0.00 in0.0 mm 0.00 in0.0 mm
12:40 PM 60.3°F15.7°C 51.6°F10.9°C 73% 2.3 mph NE3.7 kmh NE 2.3 mph3.7 kmh 30.25 in1024.4 mb - 0.00 in0.0 mm 0.00 in0.0 mm
12:30 PM 60.4°F15.8°C 51.0°F10.6°C 71% 3.5 mph NNW5.6 kmh NNW 4.6 mph7.4 kmh 30.25 in1024.4 mb - 0.00 in0.0 mm 0.00 in0.0 mm
12:20 PM 59.7°F15.4°C 50.7°F10.4°C 72% 2.3 mph NW3.7 kmh NW 3.5 mph5.6 kmh 30.26 in1024.7 mb - 0.00 in0.0 mm 0.00 in0.0 mm
12:10 PM 59.1°F15.1°C 50.4°F10.2°C 73% 3.5 mph NW5.6 kmh NW 3.5 mph5.6 kmh 30.26 in1024.7 mb - 0.00 in0.0 mm 0.00 in0.0 mm
12:00 PM 58.9°F14.9°C 50.6°F10.3°C 74% 1.2 mph NE1.9 kmh NE 2.3 mph3.7 kmh 30.27 in1025.1 mb - 0.00 in0.0 mm 0.00 in0.0 mm
11:50 AM 58.5°F14.7°C 51.4°F10.8°C 77% 2.3 mph WSW3.7 kmh WSW 3.5 mph5.6 kmh 30.27 in1025.1 mb - 0.00 in0.0 mm 0.00 in0.0 mm
11:40 AM 57.9°F14.4°C 50.0°F10.0°C 75% 3.5 mph N5.6 kmh N 3.5 mph5.6 kmh 30.27 in1025.1 mb - 0.00 in0.0 mm 0.00 in0.0 mm
11:30 AM 57.6°F14.2°C 49.7°F9.8°C 75% 8.1 mph N13.0 kmh N 10.4 mph16.7 kmh 30.27 in1025.1 mb - 0.00 in0.0 mm 0.00 in0.0 mm
11:20 AM 56.8°F13.8°C 50.3°F10.2°C 79% 5.8 mph N9.3 kmh N 6.9 mph11.1 kmh 30.27 in1025.1 mb - 0.00 in0.0 mm 0.00 in0.0 mm
11:10 AM 56.3°F13.5°C 49.2°F9.6°C 77% 8.1 mph N13.0 kmh N 6.9 mph11.1 kmh 30.27 in1025.1 mb - 0.00 in0.0 mm 0.00 in0.0 mm
11:00 AM 55.5°F13.1°C 49.1°F9.5°C 79% 4.6 mph N7.4 kmh N 4.6 mph7.4 kmh 30.28 in1025.4 mb - 0.00 in0.0 mm 0.00 in0.0 mm
10:50 AM 55.4°F13.0°C 49.6°F9.8°C 81% 5.8 mph NNW9.3 kmh NNW 6.9 mph11.1 kmh 30.27 in1025.1 mb - 0.00 in0.0 mm 0.00 in0.0 mm
10:40 AM 54.9°F12.7°C 49.2°F9.6°C 81% 8.1 mph NNW13.0 kmh NNW 10.4 mph16.7 kmh 30.27 in1025.1 mb - 0.00 in0.0 mm 0.00 in0.0 mm
10:30 AM 55.2°F12.9°C 50.8°F10.4°C 85% 5.8 mph N9.3 kmh N 8.1 mph13.0 kmh 30.27 in1025.1 mb - 0.00 in0.0 mm 0.00 in0.0 mm
10:20 AM 54.9°F12.7°C 50.8°F10.4°C 86% 5.8 mph NNW9.3 kmh NNW 6.9 mph11.1 kmh 30.27 in1025.1 mb - 0.00 in0.0 mm 0.00 in0.0 mm
10:10 AM 54.3°F12.4°C 50.8°F10.4°C 88% 5.8 mph NNW9.3 kmh NNW 5.8 mph9.3 kmh 30.26 in1024.7 mb - 0.00 in0.0 mm 0.00 in0.0 mm
10:00 AM 53.8°F12.1°C 50.0°F10.0°C 87% 3.5 mph N5.6 kmh N 3.5 mph5.6 kmh 30.27 in1025.1 mb - 0.00 in0.0 mm 0.00 in0.0 mm
09:50 AM 53.4°F11.9°C 49.6°F9.8°C 87% 1.2 mph NNW1.9 kmh NNW 2.3 mph3.7 kmh 30.27 in1025.1 mb - 0.00 in0.0 mm 0.00 in0.0 mm
09:40 AM 52.7°F11.5°C 49.5°F9.7°C 89% 3.5 mph NNW5.6 kmh NNW 4.6 mph7.4 kmh 30.27 in1025.1 mb - 0.00 in0.0 mm 0.00 in0.0 mm
09:30 AM 52.7°F11.5°C 49.9°F9.9°C 90% 3.5 mph N5.6 kmh N 4.6 mph7.4 kmh 30.27 in1025.1 mb - 0.00 in0.0 mm 0.00 in0.0 mm
09:20 AM 52.8°F11.6°C 49.9°F9.9°C 90% 4.6 mph N7.4 kmh N 4.6 mph7.4 kmh 30.26 in1024.7 mb - 0.00 in0.0 mm 0.00 in0.0 mm
09:10 AM 52.8°F11.6°C 49.3°F9.6°C 88% 4.6 mph ENE7.4 kmh ENE 4.6 mph7.4 kmh 30.26 in1024.7 mb - 0.00 in0.0 mm 0.00 in0.0 mm
09:00 AM 52.1°F11.2°C 49.0°F9.4°C 89% Calm Calm -- 30.26 in1024.7 mb - 0.00 in0.0 mm 0.00 in0.0 mm
08:50 AM 50.5°F10.3°C 48.2°F9.0°C 92% 1.2 mph S1.9 kmh S 2.3 mph3.7 kmh 30.26 in1024.7 mb - 0.00 in0.0 mm 0.00 in0.0 mm
08:40 AM 49.2°F9.6°C 47.2°F8.4°C 93% 2.3 mph SW3.7 kmh SW 3.5 mph5.6 kmh 30.26 in1024.7 mb - 0.00 in0.0 mm 0.00 in0.0 mm
08:30 AM 48.6°F9.2°C 47.0°F8.3°C 94% 4.6 mph SW7.4 kmh SW 4.6 mph7.4 kmh 30.25 in1024.4 mb - 0.00 in0.0 mm 0.00 in0.0 mm
08:20 AM 47.7°F8.7°C 46.3°F7.9°C 95% 3.5 mph SSW5.6 kmh SSW 4.6 mph7.4 kmh 30.26 in1024.7 mb - 0.00 in0.0 mm 0.00 in0.0 mm
08:10 AM 46.6°F8.1°C 45.2°F7.3°C 95% 4.6 mph SSW7.4 kmh SSW 4.6 mph7.4 kmh 30.26 in1024.7 mb - 0.00 in0.0 mm 0.00 in0.0 mm
08:00 AM 46.0°F7.8°C 44.7°F7.1°C 95% 5.8 mph S9.3 kmh S 5.8 mph9.3 kmh 30.26 in1024.7 mb - 0.00 in0.0 mm 0.00 in0.0 mm
07:50 AM 45.6°F7.6°C 44.8°F7.1°C 97% 2.3 mph S3.7 kmh S 2.3 mph3.7 kmh 30.25 in1024.4 mb - 0.00 in0.0 mm 0.00 in0.0 mm
07:40 AM 45.0°F7.2°C 44.2°F6.8°C 97% 4.6 mph S7.4 kmh S 5.8 mph9.3 kmh 30.25 in1024.4 mb - 0.00 in0.0 mm 0.00 in0.0 mm
07:30 AM 44.2°F6.8°C 43.6°F6.4°C 98% Calm Calm 2.3 mph3.7 kmh 30.25 in1024.4 mb - 0.00 in0.0 mm 0.00 in0.0 mm
07:20 AM 43.5°F6.4°C 42.7°F5.9°C 97% 3.5 mph SSW5.6 kmh SSW 4.6 mph7.4 kmh 30.25 in1024.4 mb - 0.00 in0.0 mm 0.00 in0.0 mm
07:10 AM 42.8°F6.0°C 42.0°F5.6°C 97% Calm Calm 2.3 mph3.7 kmh 30.25 in1024.4 mb - 0.00 in0.0 mm 0.00 in0.0 mm
07:00 AM 42.5°F5.8°C 41.7°F5.4°C 97% Calm Calm 1.2 mph1.9 kmh 30.25 in1024.4 mb - 0.00 in0.0 mm 0.00 in0.0 mm
06:50 AM 42.7°F5.9°C 41.9°F5.5°C 97% 4.6 mph SW7.4 kmh SW 5.8 mph9.3 kmh 30.25 in1024.4 mb - 0.00 in0.0 mm 0.00 in0.0 mm
06:40 AM 43.0°F6.1°C 42.2°F5.7°C 97% 5.8 mph SSW9.3 kmh SSW 5.8 mph9.3 kmh 30.25 in1024.4 mb - 0.00 in0.0 mm 0.00 in0.0 mm
06:30 AM 43.1°F6.2°C 42.4°F5.8°C 97% 4.6 mph SSW7.4 kmh SSW 4.6 mph7.4 kmh 30.25 in1024.4 mb - 0.00 in0.0 mm 0.00 in0.0 mm
06:20 AM 43.3°F6.3°C 42.5°F5.8°C 97% 4.6 mph SSW7.4 kmh SSW 4.6 mph7.4 kmh 30.24 in1024.0 mb - 0.00 in0.0 mm 0.00 in0.0 mm
06:10 AM 43.5°F6.4°C 42.7°F5.9°C 97% 3.5 mph SW5.6 kmh SW 3.5 mph5.6 kmh 30.24 in1024.0 mb - 0.00 in0.0 mm 0.00 in0.0 mm
06:00 AM 43.8°F6.6°C 43.0°F6.1°C 97% 1.2 mph SW1.9 kmh SW 2.3 mph3.7 kmh 30.24 in1024.0 mb - 0.00 in0.0 mm 0.00 in0.0 mm
05:50 AM 43.9°F6.6°C 42.9°F6.1°C 96% 3.5 mph WSW5.6 kmh WSW 5.8 mph9.3 kmh 30.24 in1024.0 mb - 0.00 in0.0 mm 0.00 in0.0 mm
05:40 AM 44.6°F7.0°C 43.8°F6.6°C 97% 2.3 mph SW3.7 kmh SW 3.5 mph5.6 kmh 30.24 in1024.0 mb - 0.00 in0.0 mm 0.00 in0.0 mm
05:30 AM 43.8°F6.6°C 43.0°F6.1°C 97% Calm Calm 1.2 mph1.9 kmh 30.24 in1024.0 mb - 0.00 in0.0 mm 0.00 in0.0 mm
05:20 AM 43.8°F6.6°C 42.7°F5.9°C 96% 4.6 mph SW7.4 kmh SW 3.5 mph5.6 kmh 30.24 in1024.0 mb - 0.00 in0.0 mm 0.00 in0.0 mm
05:10 AM 43.9°F6.6°C 42.8°F6.0°C 96% 5.8 mph SW9.3 kmh SW 5.8 mph9.3 kmh 30.24 in1024.0 mb - 0.00 in0.0 mm 0.00 in0.0 mm
05:00 AM 44.1°F6.7°C 43.0°F6.1°C 96% 5.8 mph SW9.3 kmh SW 5.8 mph9.3 kmh 30.24 in1024.0 mb - 0.00 in0.0 mm 0.00 in0.0 mm
04:50 AM 44.0°F6.7°C 42.7°F5.9°C 95% 4.6 mph SW7.4 kmh SW 4.6 mph7.4 kmh 30.24 in1024.0 mb - 0.00 in0.0 mm 0.00 in0.0 mm
04:40 AM 44.5°F6.9°C 43.2°F6.2°C 95% 6.9 mph SW11.1 kmh SW 6.9 mph11.1 kmh 30.24 in1024.0 mb - 0.00 in0.0 mm 0.00 in0.0 mm
04:30 AM 44.7°F7.1°C 43.4°F6.3°C 95% 3.5 mph SW5.6 kmh SW 4.6 mph7.4 kmh 30.23 in1023.7 mb - 0.00 in0.0 mm 0.00 in0.0 mm
04:20 AM 45.1°F7.3°C 43.5°F6.4°C 94% 4.6 mph SW7.4 kmh SW 4.6 mph7.4 kmh 30.23 in1023.7 mb - 0.00 in0.0 mm 0.00 in0.0 mm
04:10 AM 45.3°F7.4°C 44.0°F6.7°C 95% 5.8 mph SW9.3 kmh SW 4.6 mph7.4 kmh 30.23 in1023.7 mb - 0.00 in0.0 mm 0.00 in0.0 mm
04:00 AM 45.0°F7.2°C 43.4°F6.3°C 94% 6.9 mph SSW11.1 kmh SSW 6.9 mph11.1 kmh 30.23 in1023.7 mb - 0.00 in0.0 mm 0.00 in0.0 mm
03:50 AM 45.2°F7.3°C 43.6°F6.4°C 94% 5.8 mph SW9.3 kmh SW 5.8 mph9.3 kmh 30.23 in1023.7 mb - 0.00 in0.0 mm 0.00 in0.0 mm
03:40 AM 45.4°F7.4°C 43.8°F6.6°C 94% 4.6 mph SSW7.4 kmh SSW 4.6 mph7.4 kmh 30.23 in1023.7 mb - 0.00 in0.0 mm 0.00 in0.0 mm
03:30 AM 45.7°F7.6°C 44.1°F6.7°C 94% 3.5 mph WSW5.6 kmh WSW 3.5 mph5.6 kmh 30.22 in1023.4 mb - 0.00 in0.0 mm 0.00 in0.0 mm
03:20 AM 45.8°F7.7°C 43.9°F6.6°C 93% 3.5 mph WSW5.6 kmh WSW 4.6 mph7.4 kmh 30.22 in1023.4 mb - 0.00 in0.0 mm 0.00 in0.0 mm
03:10 AM 46.6°F8.1°C 44.4°F6.9°C 92% 4.6 mph SW7.4 kmh SW 4.6 mph7.4 kmh 30.22 in1023.4 mb - 0.00 in0.0 mm 0.00 in0.0 mm
03:00 AM 47.2°F8.4°C 45.0°F7.2°C 92% 5.8 mph WSW9.3 kmh WSW 6.9 mph11.1 kmh 30.23 in1023.7 mb - 0.00 in0.0 mm 0.00 in0.0 mm
02:50 AM 47.1°F8.4°C 44.9°F7.2°C 92% 9.2 mph WSW14.8 kmh WSW 9.2 mph14.8 kmh 30.22 in1023.4 mb - 0.00 in0.0 mm 0.00 in0.0 mm
02:40 AM 46.7°F8.2°C 44.8°F7.1°C 93% 6.9 mph WSW11.1 kmh WSW 8.1 mph13.0 kmh 30.22 in1023.4 mb - 0.00 in0.0 mm 0.00 in0.0 mm
02:30 AM 46.5°F8.1°C 44.6°F7.0°C 93% 2.3 mph SW3.7 kmh SW 3.5 mph5.6 kmh 30.22 in1023.4 mb - 0.00 in0.0 mm 0.00 in0.0 mm
02:20 AM 46.9°F8.3°C 44.7°F7.1°C 92% 4.6 mph SW7.4 kmh SW 3.5 mph5.6 kmh 30.23 in1023.7 mb - 0.00 in0.0 mm 0.00 in0.0 mm
02:10 AM 46.8°F8.2°C 44.9°F7.2°C 93% 8.1 mph SW13.0 kmh SW 8.1 mph13.0 kmh 30.23 in1023.7 mb - 0.00 in0.0 mm 0.00 in0.0 mm
02:00 AM 47.1°F8.4°C 45.1°F7.3°C 93% 6.9 mph WSW11.1 kmh WSW 8.1 mph13.0 kmh 30.23 in1023.7 mb - 0.00 in0.0 mm 0.00 in0.0 mm
01:50 AM 47.4°F8.6°C 45.2°F7.3°C 92% 5.8 mph SW9.3 kmh SW 5.8 mph9.3 kmh 30.23 in1023.7 mb - 0.00 in0.0 mm 0.00 in0.0 mm
01:40 AM 47.1°F8.4°C 45.2°F7.3°C 93% 5.8 mph SW9.3 kmh SW 8.1 mph13.0 kmh 30.22 in1023.4 mb - 0.00 in0.0 mm 0.00 in0.0 mm
01:30 AM 46.8°F8.2°C 44.9°F7.2°C 93% 3.5 mph SW5.6 kmh SW 5.8 mph9.3 kmh 30.23 in1023.7 mb - 0.00 in0.0 mm 0.00 in0.0 mm
01:20 AM 46.8°F8.2°C 44.9°F7.2°C 93% 2.3 mph SW3.7 kmh SW 3.5 mph5.6 kmh 30.23 in1023.7 mb - 0.00 in0.0 mm 0.00 in0.0 mm
01:10 AM 47.2°F8.4°C 45.0°F7.2°C 92% Calm Calm -- 30.23 in1023.7 mb - 0.00 in0.0 mm 0.00 in0.0 mm
01:00 AM 47.7°F8.7°C 45.2°F7.3°C 91% Calm Calm -- 30.22 in1023.4 mb - 0.00 in0.0 mm 0.00 in0.0 mm
12:50 AM 48.1°F8.9°C 45.6°F7.6°C 91% 6.9 mph SW11.1 kmh SW 5.8 mph9.3 kmh 30.22 in1023.4 mb - 0.00 in0.0 mm 0.00 in0.0 mm
12:40 AM 48.2°F9.0°C 45.7°F7.6°C 91% 9.2 mph SW14.8 kmh SW 9.2 mph14.8 kmh 30.23 in1023.7 mb - 0.00 in0.0 mm 0.00 in0.0 mm
12:30 AM 48.2°F9.0°C 46.0°F7.8°C 92% 9.2 mph WSW14.8 kmh WSW 10.4 mph16.7 kmh 30.22 in1023.4 mb - 0.00 in0.0 mm 0.00 in0.0 mm
12:20 AM 48.2°F9.0°C 45.7°F7.6°C 91% 1.2 mph SW1.9 kmh SW 3.5 mph5.6 kmh 30.22 in1023.4 mb - 0.00 in0.0 mm 0.00 in0.0 mm
12:10 AM 48.7°F9.3°C 45.9°F7.7°C 90% 1.2 mph W1.9 kmh W 3.5 mph5.6 kmh 30.22 in1023.4 mb - 0.00 in0.0 mm 0.00 in0.0 mm
12:00 AM 48.8°F9.3°C 46.0°F7.8°C 90% Calm Calm -- 30.22 in1023.4 mb - 0.00 in0.0 mm 0.00 in0.0 mm